createdAt,value
2019-03-04T00:00:03.822Z,3.00
2019-03-04T00:01:03.785Z,2.80
2019-03-04T00:02:03.775Z,2.50
2019-03-04T00:03:03.765Z,2.60
2019-03-04T00:04:03.753Z,2.50
2019-03-04T00:05:04.006Z,2.70
2019-03-04T00:06:03.741Z,2.80
2019-03-04T00:07:03.761Z,2.40
2019-03-04T00:08:03.715Z,2.70
2019-03-04T00:09:03.720Z,2.60
2019-03-04T00:10:03.712Z,2.50
2019-03-04T00:11:03.686Z,2.20
2019-03-04T00:12:03.698Z,2.50
2019-03-04T00:13:03.662Z,2.30
2019-03-04T00:14:03.647Z,2.20
2019-03-04T00:15:03.655Z,2.50
2019-03-04T00:16:03.626Z,2.20
2019-03-04T00:17:03.617Z,2.50
2019-03-04T00:18:03.607Z,2.70
2019-03-04T00:19:03.595Z,2.10
2019-03-04T00:20:03.612Z,2.30
2019-03-04T00:21:03.578Z,2.60
2019-03-04T00:22:03.562Z,2.30
2019-03-04T00:23:03.556Z,2.30
2019-03-04T00:24:03.541Z,2.60
2019-03-04T00:25:03.531Z,2.30
2019-03-04T00:26:03.539Z,2.40
2019-03-04T00:27:03.511Z,2.50
2019-03-04T00:28:03.497Z,2.40
2019-03-04T00:29:03.493Z,2.10
2019-03-04T00:30:03.505Z,2.40
2019-03-04T00:31:03.486Z,2.10
2019-03-04T00:32:03.461Z,2.50
2019-03-04T00:33:03.450Z,2.50
2019-03-04T00:34:03.437Z,2.50
2019-03-04T00:35:03.427Z,2.40
2019-03-04T00:36:03.444Z,2.30
2019-03-04T00:37:03.404Z,2.40
2019-03-04T00:38:03.393Z,2.30
2019-03-04T00:39:03.382Z,2.10
2019-03-04T00:40:03.374Z,2.10
2019-03-04T00:41:03.366Z,2.40
2019-03-04T00:42:03.372Z,2.60
2019-03-04T00:43:03.343Z,2.20
2019-03-04T00:44:03.331Z,2.10
2019-03-04T00:45:03.323Z,2.10
2019-03-04T00:46:03.308Z,2.30
2019-03-04T00:47:03.318Z,2.20
2019-03-04T00:48:03.288Z,2.30
2019-03-04T00:49:03.281Z,2.30
2019-03-04T00:50:03.273Z,2.30
2019-03-04T00:51:03.265Z,2.10
2019-03-04T00:52:03.277Z,2.10
2019-03-04T00:53:03.246Z,2.00
2019-03-04T00:54:03.233Z,2.10
2019-03-04T00:55:03.219Z,2.00
2019-03-04T00:56:03.212Z,2.10
2019-03-04T00:57:03.193Z,2.00
2019-03-04T00:58:03.204Z,2.20
2019-03-04T00:59:03.219Z,2.00
2019-03-04T01:00:03.171Z,2.10
2019-03-04T01:01:03.158Z,1.90
2019-03-04T01:02:03.145Z,2.00
2019-03-04T01:03:03.150Z,2.20
2019-03-04T01:04:03.121Z,2.00
2019-03-04T01:05:03.110Z,1.80
2019-03-04T01:06:03.521Z,1.70
2019-03-04T01:07:03.090Z,1.90
2019-03-04T01:08:03.096Z,1.90
2019-03-04T01:09:03.106Z,1.70
2019-03-04T01:10:03.056Z,1.80
2019-03-04T01:11:03.047Z,1.80
2019-03-04T01:12:03.037Z,1.80
2019-03-04T01:13:10.594Z,1.60
2019-03-04T01:14:03.032Z,1.90
2019-03-04T01:15:03.004Z,1.90
2019-03-04T01:16:02.994Z,1.60
2019-03-04T01:17:02.981Z,1.50
2019-03-04T01:18:02.997Z,1.80
2019-03-04T01:19:02.960Z,2.00
2019-03-04T01:20:02.957Z,1.60
2019-03-04T01:21:02.939Z,1.60
2019-03-04T01:22:02.931Z,1.60
2019-03-04T01:23:02.937Z,1.60
2019-03-04T01:24:02.909Z,1.40
2019-03-04T01:25:02.906Z,1.70
2019-03-04T01:26:02.891Z,1.60
2019-03-04T01:27:02.883Z,1.40
2019-03-04T01:28:02.884Z,1.60
2019-03-04T01:29:02.871Z,1.60
2019-03-04T01:30:02.845Z,1.60
2019-03-04T01:31:02.836Z,1.30
2019-03-04T01:32:02.823Z,1.30
2019-03-04T01:33:02.836Z,1.40
2019-03-04T01:34:02.813Z,1.40
2019-03-04T01:35:02.791Z,1.20
2019-03-04T01:36:02.786Z,1.50
2019-03-04T01:37:02.770Z,1.30
2019-03-04T01:38:02.788Z,1.20
2019-03-04T01:39:02.749Z,1.30
2019-03-04T01:40:02.742Z,1.00
2019-03-04T01:41:02.728Z,1.30
2019-03-04T01:42:02.716Z,1.30
2019-03-04T01:43:02.735Z,1.40
2019-03-04T01:44:02.695Z,1.30
2019-03-04T01:45:02.684Z,1.60
2019-03-04T01:46:02.674Z,1.30
2019-03-04T01:47:02.674Z,1.20
2019-03-04T01:48:02.671Z,1.20
2019-03-04T01:49:02.648Z,1.20
2019-03-04T01:50:02.634Z,0.90
2019-03-04T01:51:02.622Z,1.20
2019-03-04T01:52:02.620Z,1.10
2019-03-04T01:53:02.640Z,1.30
2019-03-04T01:54:02.589Z,1.10
2019-03-04T01:55:02.578Z,1.10
2019-03-04T01:56:02.579Z,1.30
2019-03-04T01:57:02.558Z,1.10
2019-03-04T01:58:02.546Z,1.10
2019-03-04T01:59:02.556Z,1.00
2019-03-04T02:00:02.530Z,1.10
2019-03-04T02:01:02.528Z,1.30
2019-03-04T02:02:02.504Z,1.00
2019-03-04T02:03:02.493Z,1.20
2019-03-04T02:04:02.505Z,1.10
2019-03-04T02:05:02.484Z,1.00
2019-03-04T02:06:02.466Z,1.20
2019-03-04T02:07:02.453Z,1.10
2019-03-04T02:08:02.440Z,0.90
2019-03-04T02:09:02.450Z,1.10
2019-03-04T02:10:02.434Z,1.00
2019-03-04T02:11:02.409Z,1.00
2019-03-04T02:12:02.409Z,1.10
2019-03-04T02:13:02.386Z,1.10
2019-03-04T02:14:02.401Z,1.00
2019-03-04T02:15:02.373Z,1.10
2019-03-04T02:16:02.359Z,1.00
2019-03-04T02:17:02.353Z,0.90
2019-03-04T02:18:02.335Z,0.90
2019-03-04T02:19:02.362Z,1.00
2019-03-04T02:20:02.314Z,1.00
2019-03-04T02:21:02.302Z,1.10
2019-03-04T02:22:02.293Z,1.20
2019-03-04T02:23:02.293Z,1.00
2019-03-04T02:24:02.271Z,0.90
2019-03-04T02:25:02.279Z,1.00
2019-03-04T02:26:02.250Z,1.00
2019-03-04T02:27:02.239Z,1.10
2019-03-04T02:28:02.239Z,0.90
2019-03-04T02:29:02.218Z,1.20
2019-03-04T02:30:02.228Z,0.90
2019-03-04T02:31:02.197Z,1.10
2019-03-04T02:32:02.195Z,1.20
2019-03-04T02:33:02.286Z,1.00
2019-03-04T02:34:02.164Z,1.10
2019-03-04T02:35:02.173Z,1.00
2019-03-04T02:36:02.145Z,1.00
2019-03-04T02:37:02.150Z,1.10
2019-03-04T02:38:02.136Z,1.00
2019-03-04T02:39:02.134Z,1.10
2019-03-04T02:40:02.129Z,1.00
2019-03-04T02:41:02.106Z,1.00
2019-03-04T02:42:02.090Z,0.90
2019-03-04T02:43:02.071Z,0.90
2019-03-04T02:44:02.056Z,1.00
2019-03-04T02:45:02.050Z,0.90
2019-03-04T02:46:02.071Z,1.20
2019-03-04T02:47:02.028Z,0.90
2019-03-04T02:48:02.019Z,1.20
2019-03-04T02:49:02.008Z,0.90
2019-03-04T02:50:02.000Z,1.00
2019-03-04T02:51:02.004Z,1.20
2019-03-04T02:52:01.979Z,1.20
2019-03-04T02:53:02.048Z,1.30
2019-03-04T02:54:01.953Z,1.10
2019-03-04T02:55:01.959Z,1.20
2019-03-04T02:56:01.967Z,1.30
2019-03-04T02:57:01.922Z,1.20
2019-03-04T02:58:01.925Z,1.40
2019-03-04T02:59:01.909Z,1.40
2019-03-04T03:00:01.894Z,1.40
2019-03-04T03:01:01.880Z,1.40
2019-03-04T03:02:01.891Z,1.50
2019-03-04T03:03:01.857Z,1.40
2019-03-04T03:04:01.868Z,1.70
2019-03-04T03:05:01.837Z,1.40
2019-03-04T03:06:01.851Z,1.60
2019-03-04T03:07:01.816Z,1.60
2019-03-04T03:08:01.846Z,1.50
2019-03-04T03:09:01.795Z,1.70
2019-03-04T03:10:01.782Z,1.70
2019-03-04T03:11:01.798Z,1.90
2019-03-04T03:12:01.765Z,2.10
2019-03-04T03:13:01.766Z,1.80
2019-03-04T03:14:01.745Z,2.00
2019-03-04T03:15:01.740Z,1.80
2019-03-04T03:16:01.748Z,1.80
2019-03-04T03:17:01.718Z,1.90
2019-03-04T03:18:01.707Z,1.90
2019-03-04T03:19:01.686Z,2.50
2019-03-04T03:20:01.680Z,2.00
2019-03-04T03:21:01.670Z,1.80
2019-03-04T03:22:01.688Z,1.90
2019-03-04T03:23:01.645Z,1.90
2019-03-04T03:24:01.646Z,2.00
2019-03-04T03:25:01.625Z,2.00
2019-03-04T03:26:01.629Z,2.10
2019-03-04T03:27:01.625Z,2.00
2019-03-04T03:28:01.599Z,2.30
2019-03-04T03:29:01.583Z,2.10
2019-03-04T03:30:01.575Z,1.90
2019-03-04T03:31:01.575Z,1.90
2019-03-04T03:32:01.577Z,2.20
2019-03-04T03:33:01.544Z,2.10
2019-03-04T03:34:01.534Z,1.80
2019-03-04T03:35:01.530Z,2.10
2019-03-04T03:36:01.509Z,1.90
2019-03-04T03:37:01.516Z,2.20
2019-03-04T03:38:01.490Z,2.10
2019-03-04T03:39:01.555Z,2.00
2019-03-04T03:40:01.483Z,2.00
2019-03-04T03:41:01.455Z,2.20
2019-03-04T03:42:01.486Z,2.00
2019-03-04T03:43:01.434Z,1.90
2019-03-04T03:44:01.432Z,2.00
2019-03-04T03:45:01.413Z,2.20
2019-03-04T03:46:01.402Z,1.80
2019-03-04T03:47:01.415Z,2.00
2019-03-04T03:48:01.382Z,2.30
2019-03-04T03:49:01.384Z,1.90
2019-03-04T03:50:01.369Z,2.20
2019-03-04T03:51:01.350Z,1.90
2019-03-04T03:52:03.083Z,1.90
2019-03-04T03:53:01.328Z,1.90
2019-03-04T03:54:01.349Z,1.60
2019-03-04T03:55:01.307Z,1.80
2019-03-04T03:56:01.301Z,1.60
2019-03-04T03:57:01.319Z,1.70
2019-03-04T03:58:01.274Z,1.60
2019-03-04T03:59:01.267Z,1.60
2019-03-04T04:00:01.257Z,1.60
2019-03-04T04:01:01.245Z,1.50
2019-03-04T04:02:01.252Z,1.50
2019-03-04T04:03:01.235Z,1.60
2019-03-04T04:04:01.221Z,1.70
2019-03-04T04:05:01.204Z,1.30
2019-03-04T04:06:01.200Z,1.50
2019-03-04T04:07:01.203Z,1.40
2019-03-04T04:08:01.175Z,1.60
2019-03-04T04:09:01.158Z,1.50
2019-03-04T04:10:01.149Z,1.60
2019-03-04T04:11:01.156Z,1.60
2019-03-04T04:12:01.145Z,1.60
2019-03-04T04:13:01.119Z,1.40
2019-03-04T04:14:01.106Z,1.50
2019-03-04T04:15:01.102Z,1.50
2019-03-04T04:16:01.085Z,1.60
2019-03-04T04:17:01.091Z,1.60
2019-03-04T04:18:01.075Z,1.30
2019-03-04T04:19:01.054Z,1.40
2019-03-04T04:20:01.060Z,1.30
2019-03-04T04:21:01.042Z,1.30
2019-03-04T04:22:01.595Z,1.30
2019-03-04T04:23:01.017Z,1.40
2019-03-04T04:24:01.004Z,1.00
2019-03-04T04:25:01.006Z,1.20
2019-03-04T04:26:01.019Z,1.20
2019-03-04T04:27:00.992Z,1.10
2019-03-04T04:28:00.973Z,1.10
2019-03-04T04:29:00.959Z,1.10
2019-03-04T04:30:00.959Z,1.00
2019-03-04T04:31:00.939Z,1.10
2019-03-04T04:32:00.951Z,1.20
2019-03-04T04:33:00.912Z,1.10
2019-03-04T04:34:00.940Z,1.00
2019-03-04T04:35:00.900Z,1.00
2019-03-04T04:36:00.878Z,1.00
2019-03-04T04:37:00.893Z,0.80
2019-03-04T04:38:00.855Z,1.00
2019-03-04T04:39:01.640Z,1.00
2019-03-04T04:40:00.836Z,1.00
2019-03-04T04:41:00.829Z,0.90
2019-03-04T04:42:00.840Z,0.90
2019-03-04T04:43:00.801Z,1.30
2019-03-04T04:44:00.793Z,1.00
2019-03-04T04:45:00.782Z,0.90
2019-03-04T04:46:00.773Z,1.10
2019-03-04T04:47:00.785Z,0.90
2019-03-04T04:48:00.755Z,1.00
2019-03-04T04:49:00.738Z,1.10
2019-03-04T04:50:00.734Z,1.00
2019-03-04T04:51:00.717Z,1.20
2019-03-04T04:52:00.728Z,1.30
2019-03-04T04:53:00.700Z,1.40
2019-03-04T04:54:00.689Z,1.20
2019-03-04T04:55:00.674Z,1.10
2019-03-04T04:56:00.665Z,1.20
2019-03-04T04:57:00.674Z,1.20
2019-03-04T04:58:00.645Z,1.30
2019-03-04T04:59:00.639Z,1.00
2019-03-04T05:00:00.631Z,1.00
2019-03-04T05:01:00.609Z,1.10
2019-03-04T05:02:00.622Z,1.20
2019-03-04T05:03:00.584Z,1.10
2019-03-04T05:04:00.576Z,1.10
2019-03-04T05:05:00.592Z,1.30
2019-03-04T05:06:00.584Z,1.20
2019-03-04T05:07:00.573Z,1.20
2019-03-04T05:08:00.536Z,1.10
2019-03-04T05:09:00.526Z,1.40
2019-03-04T05:10:00.530Z,1.20
2019-03-04T05:11:00.507Z,1.50
2019-03-04T05:12:00.517Z,1.10
2019-03-04T05:13:00.483Z,1.20
2019-03-04T05:14:00.473Z,1.40
2019-03-04T05:15:00.469Z,1.20
2019-03-04T05:16:00.456Z,1.20
2019-03-04T05:17:00.457Z,1.30
2019-03-04T05:18:00.429Z,1.10
2019-03-04T05:19:00.416Z,1.20
2019-03-04T05:20:00.424Z,1.20
2019-03-04T05:21:00.398Z,1.40
2019-03-04T05:22:00.388Z,1.30
2019-03-04T05:23:00.393Z,1.20
2019-03-04T05:24:00.364Z,1.30
2019-03-04T05:25:00.361Z,1.50
2019-03-04T05:26:00.349Z,1.30
2019-03-04T05:27:00.337Z,1.40
2019-03-04T05:28:00.339Z,1.30
2019-03-04T05:29:00.314Z,1.40
2019-03-04T05:30:00.357Z,1.10
2019-03-04T05:31:00.305Z,1.40
2019-03-04T05:32:00.278Z,1.30
2019-03-04T05:33:00.292Z,1.50
2019-03-04T05:34:00.257Z,1.30
2019-03-04T05:35:00.315Z,1.20
2019-03-04T05:36:00.238Z,1.30
2019-03-04T05:37:00.235Z,1.10
2019-03-04T05:38:00.231Z,1.50
2019-03-04T05:39:00.205Z,1.10
2019-03-04T05:40:00.329Z,1.50
2019-03-04T05:41:00.186Z,1.40
2019-03-04T05:42:00.174Z,1.40
2019-03-04T05:43:00.181Z,1.50
2019-03-04T05:44:00.169Z,1.50
2019-03-04T05:45:00.318Z,1.30
2019-03-04T05:46:00.137Z,1.40
2019-03-04T05:47:00.122Z,1.60
2019-03-04T05:48:00.131Z,1.50
2019-03-04T05:49:00.113Z,1.30
2019-03-04T05:50:00.301Z,1.40
2019-03-04T05:51:00.078Z,1.40
2019-03-04T05:52:00.072Z,1.40
2019-03-04T05:53:00.089Z,1.40
2019-03-04T05:54:00.051Z,1.40
2019-03-04T05:55:00.035Z,1.50
2019-03-04T05:56:00.027Z,1.60
2019-03-04T05:57:00.016Z,1.40
2019-03-04T05:58:00.039Z,1.50
2019-03-04T05:58:59.994Z,1.40
2019-03-04T05:59:59.982Z,1.40
2019-03-04T06:00:59.973Z,1.50
2019-03-04T06:01:59.962Z,1.50
2019-03-04T06:02:59.953Z,1.60
2019-03-04T06:03:59.965Z,1.40
2019-03-04T06:04:59.928Z,0.60
2019-03-04T06:05:59.928Z,0.70
2019-03-04T06:06:59.911Z,1.10
2019-03-04T06:07:59.905Z,1.10
2019-03-04T06:08:59.907Z,0.90
2019-03-04T06:09:59.875Z,1.50
2019-03-04T06:10:59.869Z,0.90
2019-03-04T06:11:59.857Z,1.00
2019-03-04T06:12:59.847Z,1.00
2019-03-04T06:13:59.857Z,1.10
2019-03-04T06:14:59.850Z,0.80
2019-03-04T06:15:59.814Z,0.80
2019-03-04T06:16:59.802Z,0.80
2019-03-04T06:17:59.810Z,0.60
2019-03-04T06:18:59.786Z,0.70
2019-03-04T06:19:59.796Z,0.50
2019-03-04T06:20:59.762Z,0.70
2019-03-04T06:21:59.754Z,0.80
2019-03-04T06:22:59.742Z,0.70
2019-03-04T06:23:59.730Z,0.70
2019-03-04T06:24:59.753Z,0.60
2019-03-04T06:25:59.708Z,0.70
2019-03-04T06:26:59.701Z,0.80
2019-03-04T06:27:59.690Z,1.10
2019-03-04T06:28:59.691Z,1.00
2019-03-04T06:29:59.698Z,0.90
2019-03-04T06:30:59.657Z,0.80
2019-03-04T06:31:59.647Z,0.90
2019-03-04T06:32:59.639Z,0.80
2019-03-04T06:33:59.634Z,0.60
2019-03-04T06:34:59.613Z,0.70
2019-03-04T06:35:59.619Z,0.90
2019-03-04T06:36:59.590Z,0.70
2019-03-04T06:37:59.601Z,1.10
2019-03-04T06:38:59.569Z,1.10
2019-03-04T06:39:59.562Z,1.00
2019-03-04T06:40:59.569Z,0.80
2019-03-04T06:41:59.546Z,1.10
2019-03-04T06:42:59.541Z,0.90
2019-03-04T06:43:59.532Z,1.00
2019-03-04T06:44:59.512Z,0.70
2019-03-04T06:45:59.519Z,0.80
2019-03-04T06:46:59.500Z,0.70
2019-03-04T06:47:59.489Z,1.10
2019-03-04T06:48:59.471Z,0.90
2019-03-04T06:49:59.454Z,0.90
2019-03-04T06:50:59.464Z,0.80
2019-03-04T06:51:59.445Z,0.90
2019-03-04T06:52:59.423Z,0.90
2019-03-04T06:53:59.417Z,0.90
2019-03-04T06:54:59.403Z,0.70
2019-03-04T06:55:59.424Z,0.80
2019-03-04T06:56:59.394Z,1.00
2019-03-04T06:57:59.377Z,1.10
2019-03-04T06:58:59.358Z,1.00
2019-03-04T06:59:59.347Z,0.90
2019-03-04T07:00:59.363Z,0.80
2019-03-04T07:01:59.358Z,0.70
2019-03-04T07:02:59.321Z,0.70
2019-03-04T07:03:59.309Z,0.80
2019-03-04T07:04:59.524Z,0.90
2019-03-04T07:05:59.285Z,1.00
2019-03-04T07:06:59.298Z,0.70
2019-03-04T07:07:59.263Z,0.80
2019-03-04T07:08:59.258Z,0.80
2019-03-04T07:09:59.256Z,0.80
2019-03-04T07:10:59.286Z,0.90
2019-03-04T07:11:59.243Z,1.00
2019-03-04T07:12:59.217Z,0.80
2019-03-04T07:13:59.200Z,0.90
2019-03-04T07:14:59.188Z,0.90
2019-03-04T07:15:59.180Z,0.90
2019-03-04T07:16:59.188Z,0.80
2019-03-04T07:17:59.160Z,1.10
2019-03-04T07:18:59.152Z,1.00
2019-03-04T07:19:59.139Z,0.80
2019-03-04T07:20:59.131Z,0.90
2019-03-04T07:21:59.151Z,0.80
2019-03-04T07:22:59.112Z,0.80
2019-03-04T07:23:59.100Z,0.80
2019-03-04T07:24:59.088Z,0.80
2019-03-04T07:25:59.078Z,0.90
2019-03-04T07:26:59.065Z,0.70
2019-03-04T07:27:59.095Z,0.80
2019-03-04T07:28:59.058Z,0.70
2019-03-04T07:29:59.037Z,0.90
2019-03-04T07:30:59.022Z,0.60
2019-03-04T07:31:59.017Z,0.60
2019-03-04T07:32:59.020Z,0.70
2019-03-04T07:33:58.989Z,0.70
2019-03-04T07:34:58.983Z,0.80
2019-03-04T07:35:58.973Z,0.80
2019-03-04T07:36:58.964Z,0.80
2019-03-04T07:37:58.968Z,0.70
2019-03-04T07:38:58.935Z,0.80
2019-03-04T07:39:58.927Z,0.90
2019-03-04T07:40:58.927Z,0.90
2019-03-04T07:41:58.910Z,0.80
2019-03-04T07:42:58.895Z,0.80
2019-03-04T07:43:58.904Z,0.70
2019-03-04T07:44:58.876Z,0.70
2019-03-04T07:45:58.874Z,0.70
2019-03-04T07:46:58.854Z,0.80
2019-03-04T07:48:00.296Z,0.70
2019-03-04T07:48:58.851Z,0.70
2019-03-04T07:49:58.821Z,0.80
2019-03-04T07:50:58.816Z,0.70
2019-03-04T07:51:58.799Z,0.70
2019-03-04T07:52:58.793Z,0.60
2019-03-04T07:53:58.799Z,0.70
2019-03-04T07:54:58.780Z,0.60
2019-03-04T07:55:58.759Z,0.60
2019-03-04T07:56:58.748Z,0.50
2019-03-04T07:57:58.738Z,0.70
2019-03-04T07:58:58.758Z,0.70
2019-03-04T07:59:58.716Z,0.60
2019-03-04T08:00:58.710Z,0.50
2019-03-04T08:01:58.704Z,0.60
2019-03-04T08:02:58.681Z,0.70
2019-03-04T08:03:58.697Z,0.70
2019-03-04T08:04:58.666Z,0.60
2019-03-04T08:05:58.651Z,0.70
2019-03-04T08:06:58.641Z,0.70
2019-03-04T08:07:58.630Z,0.70
2019-03-04T08:08:58.663Z,0.70
2019-03-04T08:09:58.611Z,0.80
2019-03-04T08:10:58.597Z,0.80
2019-03-04T08:11:58.587Z,0.90
2019-03-04T08:12:58.590Z,0.90
2019-03-04T08:13:58.569Z,0.90
2019-03-04T08:14:58.574Z,1.00
2019-03-04T08:15:58.550Z,1.30
2019-03-04T08:16:58.561Z,1.20
2019-03-04T08:17:58.527Z,1.00
2019-03-04T08:18:58.514Z,1.10
2019-03-04T08:19:58.527Z,0.90
2019-03-04T08:20:58.495Z,1.20
2019-03-04T08:21:58.649Z,1.20
2019-03-04T08:22:58.473Z,1.10
2019-03-04T08:23:58.463Z,1.10
2019-03-04T08:24:58.477Z,1.30
2019-03-04T08:25:58.459Z,1.10
2019-03-04T08:26:58.437Z,1.10
2019-03-04T08:27:58.424Z,1.20
2019-03-04T08:28:58.784Z,1.50
2019-03-04T08:29:58.423Z,1.20
2019-03-04T08:30:58.447Z,1.40
2019-03-04T08:31:58.377Z,1.20
2019-03-04T08:32:58.366Z,1.30
2019-03-04T08:33:58.362Z,1.30
2019-03-04T08:34:58.340Z,1.00
2019-03-04T08:35:58.360Z,1.70
2019-03-04T08:36:58.324Z,1.50
2019-03-04T08:37:58.315Z,1.20
2019-03-04T08:38:58.303Z,1.30
2019-03-04T08:39:58.291Z,1.30
2019-03-04T08:40:58.305Z,1.20
2019-03-04T08:41:58.271Z,1.40
2019-03-04T08:42:58.340Z,1.10
2019-03-04T08:43:58.250Z,1.40
2019-03-04T08:44:58.246Z,1.20
2019-03-04T08:45:58.268Z,1.10
2019-03-04T08:46:58.218Z,1.30
2019-03-04T08:48:00.435Z,1.10
2019-03-04T08:48:58.200Z,1.30
2019-03-04T08:49:58.186Z,1.30
2019-03-04T08:50:58.223Z,1.80
2019-03-04T08:51:58.169Z,1.20
2019-03-04T08:52:58.156Z,1.50
2019-03-04T08:53:58.178Z,1.30
2019-03-04T08:54:58.137Z,1.70
2019-03-04T08:55:58.122Z,1.20
2019-03-04T08:57:03.826Z,1.40
2019-03-04T08:57:59.103Z,1.50
2019-03-04T08:58:58.107Z,1.80
2019-03-04T08:59:58.086Z,1.20
2019-03-04T09:00:58.069Z,1.30
2019-03-04T09:01:58.084Z,1.30
2019-03-04T09:02:58.057Z,1.70
2019-03-04T09:03:58.043Z,1.50
2019-03-04T09:04:58.028Z,1.40
2019-03-04T09:05:58.016Z,1.40
2019-03-04T09:06:58.025Z,1.50
2019-03-04T09:07:57.999Z,1.80
2019-03-04T09:08:57.988Z,1.70
2019-03-04T09:09:57.981Z,1.30
2019-03-04T09:10:58.020Z,1.30
2019-03-04T09:11:57.982Z,1.50
2019-03-04T09:12:57.944Z,1.40
2019-03-04T09:13:57.937Z,1.30
2019-03-04T09:14:57.927Z,1.20
2019-03-04T09:15:57.910Z,1.40
2019-03-04T09:16:57.916Z,1.30
2019-03-04T09:17:57.919Z,1.50
2019-03-04T09:18:57.884Z,1.60
2019-03-04T09:19:57.888Z,1.80
2019-03-04T09:20:57.863Z,1.80
2019-03-04T09:21:57.852Z,1.50
2019-03-04T09:22:57.875Z,1.70
2019-03-04T09:23:57.835Z,1.40
2019-03-04T09:24:57.834Z,1.70
2019-03-04T09:25:57.812Z,1.60
2019-03-04T09:26:57.800Z,1.50
2019-03-04T09:27:57.812Z,1.80
2019-03-04T09:28:57.784Z,1.60
2019-03-04T09:29:57.833Z,1.70
2019-03-04T09:30:57.753Z,1.60
2019-03-04T09:31:57.745Z,1.50
2019-03-04T09:32:57.773Z,2.00
2019-03-04T09:33:57.738Z,1.70
2019-03-04T09:34:57.714Z,1.60
2019-03-04T09:35:57.701Z,1.70
2019-03-04T09:36:57.709Z,1.70
2019-03-04T09:37:57.679Z,1.70
2019-03-04T09:38:57.706Z,1.60
2019-03-04T09:39:57.660Z,1.60
2019-03-04T09:40:57.648Z,1.70
2019-03-04T09:41:57.647Z,1.50
2019-03-04T09:42:57.649Z,1.60
2019-03-04T09:43:57.648Z,1.70
2019-03-04T09:44:57.611Z,1.90
2019-03-04T09:45:57.595Z,2.10
2019-03-04T09:46:57.596Z,2.10
2019-03-04T09:47:57.578Z,1.60
2019-03-04T09:48:57.607Z,1.50
2019-03-04T09:49:57.553Z,1.80
2019-03-04T09:50:57.545Z,1.60
2019-03-04T09:51:57.534Z,1.70
2019-03-04T09:52:57.524Z,1.50
2019-03-04T09:53:57.512Z,2.00
2019-03-04T09:54:57.532Z,1.60
2019-03-04T09:55:57.503Z,1.40
2019-03-04T09:56:57.487Z,1.70
2019-03-04T09:57:57.482Z,1.90
2019-03-04T09:58:57.459Z,2.10
2019-03-04T09:59:57.477Z,2.10
2019-03-04T10:00:57.437Z,1.50
2019-03-04T10:01:57.425Z,1.90
2019-03-04T10:02:57.412Z,1.70
2019-03-04T10:03:57.412Z,1.70
2019-03-04T10:04:57.421Z,2.10
2019-03-04T10:05:57.388Z,1.80
2019-03-04T10:06:57.375Z,1.60
2019-03-04T10:07:57.361Z,2.00
2019-03-04T10:08:57.403Z,1.70
2019-03-04T10:09:57.344Z,1.60
2019-03-04T10:10:57.420Z,2.10
2019-03-04T10:11:57.335Z,1.90
2019-03-04T10:12:57.314Z,1.60
2019-03-04T10:13:57.298Z,1.60
2019-03-04T10:14:57.324Z,1.40
2019-03-04T10:15:57.310Z,1.60
2019-03-04T10:16:57.285Z,1.90
2019-03-04T10:17:57.261Z,1.90
2019-03-04T10:18:57.246Z,1.80
2019-03-04T10:19:57.238Z,2.10
2019-03-04T10:20:57.282Z,2.20
2019-03-04T10:21:57.235Z,1.90
2019-03-04T10:22:57.217Z,2.30
2019-03-04T10:23:57.192Z,2.40
2019-03-04T10:24:57.182Z,2.00
2019-03-04T10:25:57.194Z,1.90
2019-03-04T10:26:57.191Z,2.10
2019-03-04T10:27:57.150Z,2.00
2019-03-04T10:28:57.166Z,2.00
2019-03-04T10:29:57.144Z,2.70
2019-03-04T10:30:57.118Z,2.10
2019-03-04T10:31:57.165Z,2.80
2019-03-04T10:32:57.098Z,2.80
2019-03-04T10:33:57.089Z,2.30
2019-03-04T10:34:57.088Z,1.80
2019-03-04T10:35:57.078Z,2.40
2019-03-04T10:36:57.083Z,2.00
2019-03-04T10:37:57.046Z,2.00
2019-03-04T10:38:57.062Z,1.80
2019-03-04T10:39:57.026Z,2.60
2019-03-04T10:40:57.959Z,2.50
2019-03-04T10:41:57.008Z,2.00
2019-03-04T10:42:57.016Z,1.60
2019-03-04T10:43:56.980Z,1.90
2019-03-04T10:44:56.988Z,1.90
2019-03-04T10:45:56.963Z,1.80
2019-03-04T10:46:56.971Z,1.80
2019-03-04T10:47:56.965Z,1.70
2019-03-04T10:48:56.929Z,2.10
2019-03-04T10:49:56.921Z,1.80
2019-03-04T10:50:56.910Z,2.10
2019-03-04T10:51:56.939Z,1.90
2019-03-04T10:52:56.893Z,2.20
2019-03-04T10:53:56.875Z,2.10
2019-03-04T10:54:56.883Z,2.20
2019-03-04T10:55:56.859Z,2.10
2019-03-04T10:56:56.850Z,2.00
2019-03-04T10:57:56.860Z,2.20
2019-03-04T10:58:56.824Z,2.30
2019-03-04T10:59:56.814Z,2.00
2019-03-04T11:00:56.823Z,2.10
2019-03-04T11:01:56.793Z,2.00
2019-03-04T11:02:57.715Z,1.90
2019-03-04T11:03:56.777Z,1.90
2019-03-04T11:04:56.809Z,1.80
2019-03-04T11:05:56.753Z,2.40
2019-03-04T11:06:56.746Z,1.60
2019-03-04T11:07:56.771Z,2.10
2019-03-04T11:08:56.936Z,2.00
2019-03-04T11:09:56.728Z,2.00
2019-03-04T11:10:56.706Z,1.70
2019-03-04T11:11:56.688Z,2.30
2019-03-04T11:12:56.831Z,1.70
2019-03-04T11:13:56.674Z,1.30
2019-03-04T11:14:56.659Z,1.50
2019-03-04T11:15:56.653Z,1.40
2019-03-04T11:16:56.634Z,1.60
2019-03-04T11:17:56.627Z,1.90
2019-03-04T11:18:56.652Z,2.70
2019-03-04T11:19:56.605Z,1.80
2019-03-04T11:20:56.600Z,1.70
2019-03-04T11:21:56.594Z,0.90
2019-03-04T11:22:56.575Z,0.60
2019-03-04T11:23:56.592Z,0.60
2019-03-04T11:24:56.549Z,0.60
2019-03-04T11:25:56.561Z,0.70
2019-03-04T11:26:56.532Z,0.70
2019-03-04T11:27:56.528Z,1.10
2019-03-04T11:28:56.520Z,1.00
2019-03-04T11:29:56.523Z,0.70
2019-03-04T11:30:56.519Z,0.80
2019-03-04T11:31:56.478Z,0.90
2019-03-04T11:32:56.466Z,0.70
2019-03-04T11:33:56.461Z,0.70
2019-03-04T11:34:56.523Z,0.90
2019-03-04T11:35:56.434Z,0.60
2019-03-04T11:36:56.461Z,0.50
2019-03-04T11:37:56.412Z,0.60
2019-03-04T11:38:56.408Z,0.50
2019-03-04T11:39:56.450Z,0.60
2019-03-04T11:40:56.378Z,0.70
2019-03-04T11:41:56.376Z,0.70
2019-03-04T11:42:56.364Z,0.60
2019-03-04T11:43:56.366Z,0.60
2019-03-04T11:44:56.375Z,0.70
2019-03-04T11:45:56.341Z,0.70
2019-03-04T11:46:56.344Z,0.90
2019-03-04T11:47:56.320Z,1.00
2019-03-04T11:48:56.309Z,1.00
2019-03-04T11:49:56.376Z,0.80
2019-03-04T11:50:56.287Z,1.00
2019-03-04T11:51:56.264Z,1.20
2019-03-04T11:52:56.254Z,1.00
2019-03-04T11:53:56.249Z,1.10
2019-03-04T11:54:56.273Z,1.20
2019-03-04T11:55:56.229Z,1.50
2019-03-04T11:56:56.215Z,1.40
2019-03-04T11:57:56.207Z,1.20
2019-03-04T11:58:56.194Z,1.20
2019-03-04T11:59:56.177Z,1.10
2019-03-04T12:00:56.229Z,1.10
2019-03-04T12:01:56.158Z,1.00
2019-03-04T12:02:56.168Z,1.10
2019-03-04T12:03:56.147Z,1.20
2019-03-04T12:04:56.130Z,1.50
2019-03-04T12:05:56.140Z,1.10
2019-03-04T12:06:56.104Z,1.10
2019-03-04T12:07:56.100Z,1.20
2019-03-04T12:08:56.083Z,1.40
2019-03-04T12:09:56.087Z,1.30
2019-03-04T12:10:56.100Z,1.40
2019-03-04T12:11:56.069Z,1.30
2019-03-04T12:12:56.043Z,1.30
2019-03-04T12:13:56.033Z,1.50
2019-03-04T12:14:56.020Z,1.80
2019-03-04T12:15:56.049Z,1.60
2019-03-04T12:16:56.008Z,1.30
2019-03-04T12:17:55.990Z,1.50
2019-03-04T12:18:55.991Z,1.40
2019-03-04T12:19:55.969Z,1.50
2019-03-04T12:20:55.993Z,1.50
2019-03-04T12:21:55.943Z,1.40
2019-03-04T12:22:55.935Z,1.70
2019-03-04T12:23:55.931Z,1.60
2019-03-04T12:24:55.922Z,1.50
2019-03-04T12:25:55.925Z,1.30
2019-03-04T12:26:55.895Z,1.30
2019-03-04T12:27:55.895Z,1.10
2019-03-04T12:28:55.870Z,1.00
2019-03-04T12:29:55.860Z,1.10
2019-03-04T12:30:55.881Z,1.20
2019-03-04T12:31:55.884Z,1.40
2019-03-04T12:32:55.832Z,1.20
2019-03-04T12:33:55.817Z,1.60
2019-03-04T12:34:55.822Z,1.50
2019-03-04T12:35:55.822Z,2.40
2019-03-04T12:36:55.791Z,2.40
2019-03-04T12:37:55.775Z,1.70
2019-03-04T12:38:55.767Z,2.10
2019-03-04T12:39:55.753Z,3.30
2019-03-04T12:40:55.820Z,3.10
2019-03-04T12:41:55.736Z,2.10
2019-03-04T12:42:55.725Z,1.90
2019-03-04T12:43:55.711Z,3.20
2019-03-04T12:44:55.703Z,4.80
2019-03-04T12:45:55.699Z,6.00
2019-03-04T12:46:55.705Z,4.60
2019-03-04T12:47:55.676Z,4.80
2019-03-04T12:48:55.666Z,2.80
2019-03-04T12:49:55.651Z,3.00
2019-03-04T12:50:55.648Z,2.40
2019-03-04T12:51:55.653Z,1.80
2019-03-04T12:52:55.640Z,1.80
2019-03-04T12:53:55.614Z,1.60
2019-03-04T12:54:55.599Z,2.30
2019-03-04T12:55:55.587Z,1.70
2019-03-04T12:56:55.594Z,1.80
2019-03-04T12:57:55.571Z,1.70
2019-03-04T12:58:55.645Z,2.00
2019-03-04T12:59:55.546Z,2.50
2019-03-04T13:00:55.540Z,2.00
2019-03-04T13:01:55.566Z,2.20
2019-03-04T13:02:57.891Z,2.40
2019-03-04T13:03:55.503Z,2.00
2019-03-04T13:04:55.525Z,2.60
2019-03-04T13:05:55.493Z,2.60
2019-03-04T13:06:55.494Z,2.90
2019-03-04T13:07:55.479Z,2.50
2019-03-04T13:08:55.449Z,2.80
2019-03-04T13:09:55.441Z,2.70
2019-03-04T13:10:55.434Z,3.30
2019-03-04T13:11:55.448Z,2.90
2019-03-04T13:12:55.460Z,2.60
2019-03-04T13:13:55.424Z,3.10
2019-03-04T13:14:55.388Z,2.70
2019-03-04T13:15:55.375Z,2.80
2019-03-04T13:16:55.417Z,3.00
2019-03-04T13:17:55.359Z,3.00